sensor_id;sensor_type;location;lat;lon;timestamp;P1;durP1;ratioP1;P2;durP2;ratioP2
74851;SDS011;63400;50.650;6.832;2023-07-29T00:01:59;12.55;;;3.95;;
74851;SDS011;63400;50.650;6.832;2023-07-29T00:04:26;14.10;;;4.35;;
74851;SDS011;63400;50.650;6.832;2023-07-29T00:06:54;12.75;;;3.78;;
74851;SDS011;63400;50.650;6.832;2023-07-29T00:09:20;12.60;;;4.07;;
74851;SDS011;63400;50.650;6.832;2023-07-29T00:11:47;11.10;;;3.38;;
74851;SDS011;63400;50.650;6.832;2023-07-29T00:14:12;12.48;;;4.10;;
74851;SDS011;63400;50.650;6.832;2023-07-29T00:16:41;13.75;;;3.78;;
74851;SDS011;63400;50.650;6.832;2023-07-29T00:19:07;11.82;;;3.70;;
74851;SDS011;63400;50.650;6.832;2023-07-29T00:21:35;15.00;;;4.20;;
74851;SDS011;63400;50.650;6.832;2023-07-29T00:24:00;11.43;;;3.65;;
74851;SDS011;63400;50.650;6.832;2023-07-29T00:26:26;14.32;;;4.13;;
74851;SDS011;63400;50.650;6.832;2023-07-29T00:28:56;12.60;;;4.03;;
74851;SDS011;63400;50.650;6.832;2023-07-29T00:31:24;12.82;;;3.50;;
74851;SDS011;63400;50.650;6.832;2023-07-29T00:33:49;16.92;;;4.55;;
74851;SDS011;63400;50.650;6.832;2023-07-29T00:36:15;13.55;;;3.85;;
74851;SDS011;63400;50.650;6.832;2023-07-29T00:38:40;13.95;;;3.95;;
74851;SDS011;63400;50.650;6.832;2023-07-29T00:41:08;10.85;;;3.38;;
74851;SDS011;63400;50.650;6.832;2023-07-29T00:43:39;17.13;;;4.22;;
74851;SDS011;63400;50.650;6.832;2023-07-29T00:46:05;14.77;;;4.05;;
74851;SDS011;63400;50.650;6.832;2023-07-29T00:48:30;13.45;;;4.25;;
74851;SDS011;63400;50.650;6.832;2023-07-29T00:50:56;14.02;;;4.28;;
74851;SDS011;63400;50.650;6.832;2023-07-29T00:53:22;13.00;;;3.67;;
74851;SDS011;63400;50.650;6.832;2023-07-29T00:55:49;13.02;;;3.58;;
74851;SDS011;63400;50.650;6.832;2023-07-29T00:58:19;13.00;;;4.00;;
74851;SDS011;63400;50.650;6.832;2023-07-29T01:00:45;11.80;;;3.83;;
74851;SDS011;63400;50.650;6.832;2023-07-29T01:03:10;13.43;;;3.85;;
74851;SDS011;63400;50.650;6.832;2023-07-29T01:06:04;14.90;;;4.25;;
74851;SDS011;63400;50.650;6.832;2023-07-29T01:14:34;15.88;;;4.18;;
74851;SDS011;63400;50.650;6.832;2023-07-29T01:17:03;13.27;;;3.83;;
74851;SDS011;63400;50.650;6.832;2023-07-29T01:22:18;13.90;;;3.95;;
74851;SDS011;63400;50.650;6.832;2023-07-29T01:24:45;15.00;;;4.30;;
74851;SDS011;63400;50.650;6.832;2023-07-29T01:27:12;14.60;;;3.70;;
74851;SDS011;63400;50.650;6.832;2023-07-29T01:29:38;13.13;;;3.90;;
74851;SDS011;63400;50.650;6.832;2023-07-29T01:32:08;12.45;;;3.75;;
74851;SDS011;63400;50.650;6.832;2023-07-29T01:34:41;15.57;;;4.40;;
74851;SDS011;63400;50.650;6.832;2023-07-29T01:37:12;12.65;;;3.50;;
74851;SDS011;63400;50.650;6.832;2023-07-29T01:39:43;16.13;;;4.22;;
74851;SDS011;63400;50.650;6.832;2023-07-29T01:42:14;13.48;;;3.95;;
74851;SDS011;63400;50.650;6.832;2023-07-29T01:44:46;15.15;;;4.53;;
74851;SDS011;63400;50.650;6.832;2023-07-29T01:47:14;13.95;;;3.92;;
74851;SDS011;63400;50.650;6.832;2023-07-29T01:49:43;13.43;;;3.78;;
74851;SDS011;63400;50.650;6.832;2023-07-29T01:52:09;14.43;;;3.95;;
74851;SDS011;63400;50.650;6.832;2023-07-29T01:54:36;12.70;;;3.45;;
74851;SDS011;63400;50.650;6.832;2023-07-29T01:57:01;13.20;;;3.90;;
74851;SDS011;63400;50.650;6.832;2023-07-29T01:59:27;12.15;;;3.30;;
74851;SDS011;63400;50.650;6.832;2023-07-29T02:01:52;15.38;;;3.83;;
74851;SDS011;63400;50.650;6.832;2023-07-29T02:04:19;11.68;;;3.38;;
74851;SDS011;63400;50.650;6.832;2023-07-29T02:06:48;14.10;;;4.22;;
74851;SDS011;63400;50.650;6.832;2023-07-29T02:09:14;11.88;;;3.30;;
74851;SDS011;63400;50.650;6.832;2023-07-29T02:11:40;13.57;;;3.70;;
74851;SDS011;63400;50.650;6.832;2023-07-29T02:14:05;15.18;;;4.47;;
74851;SDS011;63400;50.650;6.832;2023-07-29T02:16:31;15.68;;;4.57;;
74851;SDS011;63400;50.650;6.832;2023-07-29T02:18:59;12.70;;;3.70;;
74851;SDS011;63400;50.650;6.832;2023-07-29T02:21:28;15.88;;;4.53;;
74851;SDS011;63400;50.650;6.832;2023-07-29T02:23:53;13.73;;;3.95;;
74851;SDS011;63400;50.650;6.832;2023-07-29T02:26:19;15.38;;;4.00;;
74851;SDS011;63400;50.650;6.832;2023-07-29T02:28:45;13.75;;;3.75;;
74851;SDS011;63400;50.650;6.832;2023-07-29T02:33:48;13.45;;;4.00;;
74851;SDS011;63400;50.650;6.832;2023-07-29T02:36:14;13.68;;;3.75;;
74851;SDS011;63400;50.650;6.832;2023-07-29T02:38:40;12.88;;;3.75;;
74851;SDS011;63400;50.650;6.832;2023-07-29T02:41:06;14.55;;;3.70;;
74851;SDS011;63400;50.650;6.832;2023-07-29T02:43:33;14.57;;;3.88;;
74851;SDS011;63400;50.650;6.832;2023-07-29T02:45:59;12.95;;;3.58;;
74851;SDS011;63400;50.650;6.832;2023-07-29T02:48:24;13.90;;;3.45;;
74851;SDS011;63400;50.650;6.832;2023-07-29T02:50:50;14.20;;;3.65;;
74851;SDS011;63400;50.650;6.832;2023-07-29T02:53:15;12.38;;;3.22;;
74851;SDS011;63400;50.650;6.832;2023-07-29T02:55:41;13.88;;;3.30;;
74851;SDS011;63400;50.650;6.832;2023-07-29T02:58:06;12.75;;;3.47;;
74851;SDS011;63400;50.650;6.832;2023-07-29T03:00:32;14.10;;;3.42;;
74851;SDS011;63400;50.650;6.832;2023-07-29T03:02:58;12.35;;;3.17;;
74851;SDS011;63400;50.650;6.832;2023-07-29T03:05:24;13.02;;;3.45;;
74851;SDS011;63400;50.650;6.832;2023-07-29T03:07:49;14.10;;;3.45;;
74851;SDS011;63400;50.650;6.832;2023-07-29T03:10:15;13.38;;;4.05;;
74851;SDS011;63400;50.650;6.832;2023-07-29T03:12:40;13.40;;;3.25;;
74851;SDS011;63400;50.650;6.832;2023-07-29T03:15:06;12.85;;;3.30;;
74851;SDS011;63400;50.650;6.832;2023-07-29T03:17:31;14.48;;;3.20;;
74851;SDS011;63400;50.650;6.832;2023-07-29T03:19:57;12.38;;;3.42;;
74851;SDS011;63400;50.650;6.832;2023-07-29T03:22:22;13.52;;;3.47;;
74851;SDS011;63400;50.650;6.832;2023-07-29T03:24:48;14.98;;;3.72;;
74851;SDS011;63400;50.650;6.832;2023-07-29T03:27:13;13.30;;;3.55;;
74851;SDS011;63400;50.650;6.832;2023-07-29T03:29:40;12.02;;;3.20;;
74851;SDS011;63400;50.650;6.832;2023-07-29T03:32:06;13.25;;;3.50;;
74851;SDS011;63400;50.650;6.832;2023-07-29T03:34:32;12.88;;;3.63;;
74851;SDS011;63400;50.650;6.832;2023-07-29T03:36:57;10.55;;;2.70;;
74851;SDS011;63400;50.650;6.832;2023-07-29T03:39:23;14.35;;;4.07;;
74851;SDS011;63400;50.650;6.832;2023-07-29T03:41:49;14.15;;;3.22;;
74851;SDS011;63400;50.650;6.832;2023-07-29T03:44:14;16.70;;;4.47;;
74851;SDS011;63400;50.650;6.832;2023-07-29T03:46:39;15.70;;;3.75;;
74851;SDS011;63400;50.650;6.832;2023-07-29T03:49:05;12.73;;;2.95;;
74851;SDS011;63400;50.650;6.832;2023-07-29T03:51:30;11.57;;;2.90;;
74851;SDS011;63400;50.650;6.832;2023-07-29T03:53:56;13.77;;;3.30;;
74851;SDS011;63400;50.650;6.832;2023-07-29T03:56:21;12.77;;;3.30;;
74851;SDS011;63400;50.650;6.832;2023-07-29T03:58:46;12.35;;;3.17;;
74851;SDS011;63400;50.650;6.832;2023-07-29T04:01:15;11.77;;;3.13;;
74851;SDS011;63400;50.650;6.832;2023-07-29T04:03:40;16.20;;;3.78;;
74851;SDS011;63400;50.650;6.832;2023-07-29T04:06:05;15.23;;;3.50;;
74851;SDS011;63400;50.650;6.832;2023-07-29T04:08:31;15.63;;;3.80;;
74851;SDS011;63400;50.650;6.832;2023-07-29T04:10:56;14.65;;;4.28;;
74851;SDS011;63400;50.650;6.832;2023-07-29T04:13:22;13.95;;;3.50;;
74851;SDS011;63400;50.650;6.832;2023-07-29T04:15:48;12.48;;;2.85;;
74851;SDS011;63400;50.650;6.832;2023-07-29T04:18:13;13.18;;;3.40;;
74851;SDS011;63400;50.650;6.832;2023-07-29T04:20:38;13.23;;;2.80;;
74851;SDS011;63400;50.650;6.832;2023-07-29T04:23:04;11.27;;;2.67;;
74851;SDS011;63400;50.650;6.832;2023-07-29T04:25:29;13.57;;;3.22;;
74851;SDS011;63400;50.650;6.832;2023-07-29T04:27:55;11.13;;;2.63;;
74851;SDS011;63400;50.650;6.832;2023-07-29T04:30:22;14.95;;;3.33;;
74851;SDS011;63400;50.650;6.832;2023-07-29T04:32:48;11.60;;;2.78;;
74851;SDS011;63400;50.650;6.832;2023-07-29T04:35:13;13.80;;;3.20;;
74851;SDS011;63400;50.650;6.832;2023-07-29T04:37:39;12.95;;;2.92;;
74851;SDS011;63400;50.650;6.832;2023-07-29T04:40:05;11.18;;;3.05;;
74851;SDS011;63400;50.650;6.832;2023-07-29T04:42:31;12.68;;;3.38;;
74851;SDS011;63400;50.650;6.832;2023-07-29T04:44:56;14.07;;;3.50;;
74851;SDS011;63400;50.650;6.832;2023-07-29T04:47:22;11.63;;;3.03;;
74851;SDS011;63400;50.650;6.832;2023-07-29T04:49:48;11.38;;;3.25;;
74851;SDS011;63400;50.650;6.832;2023-07-29T04:52:13;14.98;;;3.75;;
74851;SDS011;63400;50.650;6.832;2023-07-29T04:54:40;14.18;;;3.63;;
74851;SDS011;63400;50.650;6.832;2023-07-29T04:57:05;13.63;;;3.60;;
74851;SDS011;63400;50.650;6.832;2023-07-29T04:59:31;12.50;;;3.03;;
74851;SDS011;63400;50.650;6.832;2023-07-29T05:01:56;14.10;;;3.38;;
74851;SDS011;63400;50.650;6.832;2023-07-29T05:04:22;14.68;;;3.40;;
74851;SDS011;63400;50.650;6.832;2023-07-29T05:06:48;11.45;;;3.15;;
74851;SDS011;63400;50.650;6.832;2023-07-29T05:09:16;13.88;;;3.25;;
74851;SDS011;63400;50.650;6.832;2023-07-29T05:11:43;12.77;;;3.47;;
74851;SDS011;63400;50.650;6.832;2023-07-29T05:14:10;12.75;;;3.65;;
74851;SDS011;63400;50.650;6.832;2023-07-29T05:16:36;14.07;;;3.72;;
74851;SDS011;63400;50.650;6.832;2023-07-29T05:19:01;11.65;;;2.97;;
74851;SDS011;63400;50.650;6.832;2023-07-29T05:21:27;15.98;;;3.80;;
74851;SDS011;63400;50.650;6.832;2023-07-29T05:23:52;12.55;;;3.33;;
74851;SDS011;63400;50.650;6.832;2023-07-29T05:26:18;13.90;;;3.90;;
74851;SDS011;63400;50.650;6.832;2023-07-29T05:28:43;12.75;;;3.50;;
74851;SDS011;63400;50.650;6.832;2023-07-29T05:31:09;14.93;;;4.15;;
74851;SDS011;63400;50.650;6.832;2023-07-29T05:33:34;14.70;;;3.72;;
74851;SDS011;63400;50.650;6.832;2023-07-29T05:36:01;16.83;;;4.05;;
74851;SDS011;63400;50.650;6.832;2023-07-29T05:38:26;14.93;;;3.67;;
74851;SDS011;63400;50.650;6.832;2023-07-29T05:40:52;13.82;;;4.07;;
74851;SDS011;63400;50.650;6.832;2023-07-29T05:43:17;12.60;;;3.63;;
74851;SDS011;63400;50.650;6.832;2023-07-29T05:45:43;19.17;;;4.22;;
74851;SDS011;63400;50.650;6.832;2023-07-29T05:48:08;14.90;;;3.97;;
74851;SDS011;63400;50.650;6.832;2023-07-29T05:50:33;11.35;;;3.33;;
74851;SDS011;63400;50.650;6.832;2023-07-29T05:52:59;13.60;;;3.53;;
74851;SDS011;63400;50.650;6.832;2023-07-29T05:55:24;11.32;;;2.90;;
74851;SDS011;63400;50.650;6.832;2023-07-29T05:57:50;13.35;;;4.00;;
74851;SDS011;63400;50.650;6.832;2023-07-29T06:00:15;13.18;;;3.95;;
74851;SDS011;63400;50.650;6.832;2023-07-29T06:02:41;14.48;;;4.05;;
74851;SDS011;63400;50.650;6.832;2023-07-29T06:05:06;11.77;;;3.35;;
74851;SDS011;63400;50.650;6.832;2023-07-29T06:07:32;11.65;;;3.20;;
74851;SDS011;63400;50.650;6.832;2023-07-29T06:09:59;15.48;;;4.20;;
74851;SDS011;63400;50.650;6.832;2023-07-29T06:12:24;14.07;;;3.83;;
74851;SDS011;63400;50.650;6.832;2023-07-29T06:14:50;14.60;;;3.83;;
74851;SDS011;63400;50.650;6.832;2023-07-29T06:17:15;12.30;;;3.75;;
74851;SDS011;63400;50.650;6.832;2023-07-29T06:19:41;14.88;;;3.42;;
74851;SDS011;63400;50.650;6.832;2023-07-29T06:22:06;13.80;;;3.88;;
74851;SDS011;63400;50.650;6.832;2023-07-29T06:24:33;13.05;;;4.05;;
74851;SDS011;63400;50.650;6.832;2023-07-29T06:26:59;16.02;;;4.18;;
74851;SDS011;63400;50.650;6.832;2023-07-29T06:29:24;15.20;;;3.97;;
74851;SDS011;63400;50.650;6.832;2023-07-29T06:31:49;13.10;;;3.38;;
74851;SDS011;63400;50.650;6.832;2023-07-29T06:34:16;13.27;;;4.10;;
74851;SDS011;63400;50.650;6.832;2023-07-29T06:36:42;13.25;;;3.95;;
74851;SDS011;63400;50.650;6.832;2023-07-29T06:39:08;14.07;;;4.10;;
74851;SDS011;63400;50.650;6.832;2023-07-29T06:41:33;12.18;;;3.35;;
74851;SDS011;63400;50.650;6.832;2023-07-29T06:43:58;13.02;;;3.85;;
74851;SDS011;63400;50.650;6.832;2023-07-29T06:46:24;11.70;;;3.50;;
74851;SDS011;63400;50.650;6.832;2023-07-29T06:48:49;12.27;;;3.50;;
74851;SDS011;63400;50.650;6.832;2023-07-29T06:51:15;15.23;;;4.85;;
74851;SDS011;63400;50.650;6.832;2023-07-29T06:53:40;12.10;;;4.13;;
74851;SDS011;63400;50.650;6.832;2023-07-29T06:56:06;14.30;;;4.93;;
74851;SDS011;63400;50.650;6.832;2023-07-29T06:58:31;14.52;;;4.65;;
74851;SDS011;63400;50.650;6.832;2023-07-29T07:00:57;12.07;;;4.35;;
74851;SDS011;63400;50.650;6.832;2023-07-29T07:03:22;14.00;;;4.50;;
74851;SDS011;63400;50.650;6.832;2023-07-29T07:05:47;12.45;;;4.05;;
74851;SDS011;63400;50.650;6.832;2023-07-29T07:08:13;12.38;;;4.10;;
74851;SDS011;63400;50.650;6.832;2023-07-29T07:10:39;12.50;;;4.22;;
74851;SDS011;63400;50.650;6.832;2023-07-29T07:13:04;13.38;;;4.53;;
74851;SDS011;63400;50.650;6.832;2023-07-29T07:15:31;13.98;;;4.50;;
74851;SDS011;63400;50.650;6.832;2023-07-29T07:17:57;15.18;;;5.32;;
74851;SDS011;63400;50.650;6.832;2023-07-29T07:20:22;15.82;;;5.20;;
74851;SDS011;63400;50.650;6.832;2023-07-29T07:22:47;12.82;;;5.03;;
74851;SDS011;63400;50.650;6.832;2023-07-29T07:25:13;13.30;;;4.47;;
74851;SDS011;63400;50.650;6.832;2023-07-29T07:27:38;14.48;;;5.10;;
74851;SDS011;63400;50.650;6.832;2023-07-29T07:30:04;13.95;;;5.05;;
74851;SDS011;63400;50.650;6.832;2023-07-29T07:32:30;13.38;;;4.93;;
74851;SDS011;63400;50.650;6.832;2023-07-29T07:34:55;13.27;;;4.43;;
74851;SDS011;63400;50.650;6.832;2023-07-29T07:37:20;13.70;;;4.95;;
74851;SDS011;63400;50.650;6.832;2023-07-29T07:39:46;13.98;;;4.72;;
74851;SDS011;63400;50.650;6.832;2023-07-29T07:42:11;12.63;;;4.35;;
74851;SDS011;63400;50.650;6.832;2023-07-29T07:44:37;11.40;;;4.47;;
74851;SDS011;63400;50.650;6.832;2023-07-29T07:47:02;11.73;;;4.75;;
74851;SDS011;63400;50.650;6.832;2023-07-29T07:49:28;12.68;;;4.95;;
74851;SDS011;63400;50.650;6.832;2023-07-29T07:51:53;9.90;;;4.00;;
74851;SDS011;63400;50.650;6.832;2023-07-29T07:54:19;9.32;;;3.90;;
74851;SDS011;63400;50.650;6.832;2023-07-29T07:56:44;9.70;;;3.83;;
74851;SDS011;63400;50.650;6.832;2023-07-29T07:59:10;9.70;;;4.50;;
74851;SDS011;63400;50.650;6.832;2023-07-29T08:01:35;11.52;;;4.63;;
74851;SDS011;63400;50.650;6.832;2023-07-29T08:04:01;11.25;;;4.32;;
74851;SDS011;63400;50.650;6.832;2023-07-29T08:06:27;10.85;;;4.18;;
74851;SDS011;63400;50.650;6.832;2023-07-29T08:08:53;14.63;;;5.22;;
74851;SDS011;63400;50.650;6.832;2023-07-29T08:11:18;7.82;;;3.22;;
74851;SDS011;63400;50.650;6.832;2023-07-29T08:13:47;10.25;;;3.83;;
74851;SDS011;63400;50.650;6.832;2023-07-29T08:16:12;11.88;;;4.18;;
74851;SDS011;63400;50.650;6.832;2023-07-29T08:18:38;10.60;;;4.05;;
74851;SDS011;63400;50.650;6.832;2023-07-29T08:21:03;11.25;;;4.22;;
74851;SDS011;63400;50.650;6.832;2023-07-29T08:23:30;10.25;;;3.83;;
74851;SDS011;63400;50.650;6.832;2023-07-29T08:26:03;9.13;;;3.65;;
74851;SDS011;63400;50.650;6.832;2023-07-29T08:28:34;11.80;;;3.70;;
74851;SDS011;63400;50.650;6.832;2023-07-29T08:31:00;11.27;;;4.47;;
74851;SDS011;63400;50.650;6.832;2023-07-29T08:33:26;11.65;;;4.45;;
74851;SDS011;63400;50.650;6.832;2023-07-29T08:35:52;9.52;;;3.50;;
74851;SDS011;63400;50.650;6.832;2023-07-29T08:38:18;7.88;;;3.40;;
74851;SDS011;63400;50.650;6.832;2023-07-29T08:40:52;10.73;;;3.90;;
74851;SDS011;63400;50.650;6.832;2023-07-29T08:43:24;9.90;;;3.60;;
74851;SDS011;63400;50.650;6.832;2023-07-29T08:45:57;12.23;;;4.47;;
74851;SDS011;63400;50.650;6.832;2023-07-29T08:48:33;9.55;;;3.42;;
74851;SDS011;63400;50.650;6.832;2023-07-29T08:51:07;9.60;;;3.90;;
74851;SDS011;63400;50.650;6.832;2023-07-29T08:53:34;11.15;;;4.15;;
74851;SDS011;63400;50.650;6.832;2023-07-29T08:56:00;11.93;;;4.03;;
74851;SDS011;63400;50.650;6.832;2023-07-29T08:58:26;11.07;;;4.00;;
74851;SDS011;63400;50.650;6.832;2023-07-29T09:00:51;12.48;;;4.25;;
74851;SDS011;63400;50.650;6.832;2023-07-29T09:03:17;12.90;;;4.70;;
74851;SDS011;63400;50.650;6.832;2023-07-29T09:05:43;11.50;;;4.35;;
74851;SDS011;63400;50.650;6.832;2023-07-29T09:08:08;13.52;;;4.82;;
74851;SDS011;63400;50.650;6.832;2023-07-29T09:10:35;10.18;;;4.22;;
74851;SDS011;63400;50.650;6.832;2023-07-29T09:13:02;10.55;;;4.03;;
74851;SDS011;63400;50.650;6.832;2023-07-29T09:15:32;9.75;;;4.05;;
74851;SDS011;63400;50.650;6.832;2023-07-29T09:17:59;12.43;;;5.07;;
74851;SDS011;63400;50.650;6.832;2023-07-29T09:20:25;10.82;;;4.32;;
74851;SDS011;63400;50.650;6.832;2023-07-29T09:22:52;13.68;;;4.40;;
74851;SDS011;63400;50.650;6.832;2023-07-29T09:25:25;12.05;;;4.45;;
74851;SDS011;63400;50.650;6.832;2023-07-29T09:27:52;12.45;;;4.80;;
74851;SDS011;63400;50.650;6.832;2023-07-29T09:30:17;10.82;;;4.28;;
74851;SDS011;63400;50.650;6.832;2023-07-29T09:32:43;12.65;;;4.07;;
74851;SDS011;63400;50.650;6.832;2023-07-29T09:35:11;14.15;;;5.00;;
74851;SDS011;63400;50.650;6.832;2023-07-29T09:37:38;11.52;;;4.63;;
74851;SDS011;63400;50.650;6.832;2023-07-29T09:40:05;10.93;;;4.30;;
74851;SDS011;63400;50.650;6.832;2023-07-29T09:42:31;13.25;;;5.00;;
74851;SDS011;63400;50.650;6.832;2023-07-29T09:44:57;11.93;;;4.57;;
74851;SDS011;63400;50.650;6.832;2023-07-29T09:47:23;12.07;;;4.50;;
74851;SDS011;63400;50.650;6.832;2023-07-29T09:52:18;13.82;;;5.03;;
74851;SDS011;63400;50.650;6.832;2023-07-29T09:54:45;11.52;;;4.25;;
74851;SDS011;63400;50.650;6.832;2023-07-29T09:57:13;9.63;;;3.65;;
74851;SDS011;63400;50.650;6.832;2023-07-29T09:59:39;13.85;;;4.47;;
74851;SDS011;63400;50.650;6.832;2023-07-29T10:02:04;11.82;;;4.47;;
74851;SDS011;63400;50.650;6.832;2023-07-29T10:04:35;11.32;;;5.13;;
74851;SDS011;63400;50.650;6.832;2023-07-29T10:07:00;10.38;;;3.92;;
74851;SDS011;63400;50.650;6.832;2023-07-29T10:09:27;9.77;;;4.18;;
74851;SDS011;63400;50.650;6.832;2023-07-29T10:11:52;10.90;;;4.07;;
74851;SDS011;63400;50.650;6.832;2023-07-29T10:14:18;11.55;;;4.03;;
74851;SDS011;63400;50.650;6.832;2023-07-29T10:16:44;11.90;;;4.10;;
74851;SDS011;63400;50.650;6.832;2023-07-29T10:19:11;12.32;;;4.53;;
74851;SDS011;63400;50.650;6.832;2023-07-29T10:21:39;13.13;;;4.68;;
74851;SDS011;63400;50.650;6.832;2023-07-29T10:26:33;13.70;;;4.70;;
74851;SDS011;63400;50.650;6.832;2023-07-29T10:29:04;12.90;;;4.68;;
74851;SDS011;63400;50.650;6.832;2023-07-29T10:31:29;12.27;;;4.30;;
74851;SDS011;63400;50.650;6.832;2023-07-29T10:33:55;13.95;;;5.18;;
74851;SDS011;63400;50.650;6.832;2023-07-29T10:36:21;12.38;;;4.30;;
74851;SDS011;63400;50.650;6.832;2023-07-29T10:38:46;12.02;;;4.30;;
74851;SDS011;63400;50.650;6.832;2023-07-29T10:41:12;13.80;;;4.72;;
74851;SDS011;63400;50.650;6.832;2023-07-29T10:43:37;11.63;;;4.78;;
74851;SDS011;63400;50.650;6.832;2023-07-29T10:46:16;13.48;;;4.60;;
74851;SDS011;63400;50.650;6.832;2023-07-29T10:48:55;13.88;;;4.93;;
74851;SDS011;63400;50.650;6.832;2023-07-29T10:51:25;12.45;;;4.70;;
74851;SDS011;63400;50.650;6.832;2023-07-29T10:54:09;14.02;;;4.55;;
74851;SDS011;63400;50.650;6.832;2023-07-29T10:56:36;12.90;;;4.63;;
74851;SDS011;63400;50.650;6.832;2023-07-29T11:01:40;12.10;;;4.40;;
74851;SDS011;63400;50.650;6.832;2023-07-29T11:09:42;12.63;;;4.55;;
74851;SDS011;63400;50.650;6.832;2023-07-29T11:12:50;13.93;;;4.75;;
74851;SDS011;63400;50.650;6.832;2023-07-29T11:15:28;11.60;;;4.43;;
74851;SDS011;63400;50.650;6.832;2023-07-29T11:18:00;12.85;;;4.53;;
74851;SDS011;63400;50.650;6.832;2023-07-29T11:20:28;12.70;;;4.78;;
74851;SDS011;63400;50.650;6.832;2023-07-29T11:22:54;13.20;;;5.35;;
74851;SDS011;63400;50.650;6.832;2023-07-29T11:25:22;12.48;;;5.07;;
74851;SDS011;63400;50.650;6.832;2023-07-29T11:27:48;12.20;;;4.53;;
74851;SDS011;63400;50.650;6.832;2023-07-29T11:30:14;12.15;;;5.13;;
74851;SDS011;63400;50.650;6.832;2023-07-29T11:32:41;13.40;;;5.20;;
74851;SDS011;63400;50.650;6.832;2023-07-29T11:37:35;14.05;;;4.45;;
74851;SDS011;63400;50.650;6.832;2023-07-29T11:40:00;14.02;;;4.97;;
74851;SDS011;63400;50.650;6.832;2023-07-29T11:42:27;15.65;;;5.43;;
74851;SDS011;63400;50.650;6.832;2023-07-29T11:44:53;15.23;;;5.47;;
74851;SDS011;63400;50.650;6.832;2023-07-29T11:47:21;13.63;;;6.05;;
74851;SDS011;63400;50.650;6.832;2023-07-29T11:49:47;13.00;;;5.05;;
74851;SDS011;63400;50.650;6.832;2023-07-29T11:52:12;13.90;;;4.72;;
74851;SDS011;63400;50.650;6.832;2023-07-29T11:54:38;13.70;;;5.07;;
74851;SDS011;63400;50.650;6.832;2023-07-29T11:57:07;13.93;;;5.38;;
74851;SDS011;63400;50.650;6.832;2023-07-29T11:59:34;15.38;;;5.60;;
74851;SDS011;63400;50.650;6.832;2023-07-29T12:02:01;15.32;;;4.90;;
74851;SDS011;63400;50.650;6.832;2023-07-29T12:04:28;17.02;;;5.53;;
74851;SDS011;63400;50.650;6.832;2023-07-29T12:06:54;13.93;;;4.70;;
74851;SDS011;63400;50.650;6.832;2023-07-29T12:09:20;12.23;;;4.75;;
74851;SDS011;63400;50.650;6.832;2023-07-29T12:11:47;12.75;;;4.80;;
74851;SDS011;63400;50.650;6.832;2023-07-29T12:14:12;13.63;;;4.93;;
74851;SDS011;63400;50.650;6.832;2023-07-29T12:16:41;11.43;;;4.25;;
74851;SDS011;63400;50.650;6.832;2023-07-29T12:19:12;13.68;;;4.65;;
74851;SDS011;63400;50.650;6.832;2023-07-29T12:21:39;13.75;;;4.97;;
74851;SDS011;63400;50.650;6.832;2023-07-29T12:24:06;11.48;;;4.07;;
74851;SDS011;63400;50.650;6.832;2023-07-29T12:26:31;13.60;;;4.80;;
74851;SDS011;63400;50.650;6.832;2023-07-29T12:28:57;14.80;;;4.82;;
74851;SDS011;63400;50.650;6.832;2023-07-29T12:31:30;12.95;;;4.45;;
74851;SDS011;63400;50.650;6.832;2023-07-29T12:33:57;12.93;;;4.55;;
74851;SDS011;63400;50.650;6.832;2023-07-29T12:36:23;14.35;;;4.50;;
74851;SDS011;63400;50.650;6.832;2023-07-29T12:38:53;12.98;;;4.43;;
74851;SDS011;63400;50.650;6.832;2023-07-29T12:41:18;12.85;;;4.35;;
74851;SDS011;63400;50.650;6.832;2023-07-29T12:43:44;13.63;;;5.18;;
74851;SDS011;63400;50.650;6.832;2023-07-29T12:46:10;13.52;;;4.75;;
74851;SDS011;63400;50.650;6.832;2023-07-29T12:48:35;13.60;;;4.82;;
74851;SDS011;63400;50.650;6.832;2023-07-29T12:51:01;14.07;;;5.20;;
74851;SDS011;63400;50.650;6.832;2023-07-29T12:53:26;15.02;;;5.50;;
74851;SDS011;63400;50.650;6.832;2023-07-29T12:55:51;11.77;;;4.53;;
74851;SDS011;63400;50.650;6.832;2023-07-29T12:58:17;12.63;;;4.82;;
74851;SDS011;63400;50.650;6.832;2023-07-29T13:00:42;8.98;;;3.58;;
74851;SDS011;63400;50.650;6.832;2023-07-29T13:03:08;11.35;;;4.35;;
74851;SDS011;63400;50.650;6.832;2023-07-29T13:05:33;11.00;;;4.45;;
74851;SDS011;63400;50.650;6.832;2023-07-29T13:07:59;10.95;;;4.30;;
74851;SDS011;63400;50.650;6.832;2023-07-29T13:10:25;10.65;;;4.32;;
74851;SDS011;63400;50.650;6.832;2023-07-29T13:12:50;9.23;;;4.00;;
74851;SDS011;63400;50.650;6.832;2023-07-29T13:15:15;9.45;;;3.88;;
74851;SDS011;63400;50.650;6.832;2023-07-29T13:17:41;10.20;;;3.67;;
74851;SDS011;63400;50.650;6.832;2023-07-29T13:20:06;9.45;;;3.40;;
74851;SDS011;63400;50.650;6.832;2023-07-29T13:22:32;10.18;;;3.78;;
74851;SDS011;63400;50.650;6.832;2023-07-29T13:24:58;7.47;;;3.03;;
74851;SDS011;63400;50.650;6.832;2023-07-29T13:27:23;9.48;;;3.53;;
74851;SDS011;63400;50.650;6.832;2023-07-29T13:29:50;12.65;;;4.65;;
74851;SDS011;63400;50.650;6.832;2023-07-29T13:32:15;10.25;;;3.92;;
74851;SDS011;63400;50.650;6.832;2023-07-29T13:34:41;11.25;;;4.22;;
74851;SDS011;63400;50.650;6.832;2023-07-29T13:37:06;12.70;;;5.32;;
74851;SDS011;63400;50.650;6.832;2023-07-29T13:39:31;10.13;;;4.32;;
74851;SDS011;63400;50.650;6.832;2023-07-29T13:41:57;8.73;;;3.50;;
74851;SDS011;63400;50.650;6.832;2023-07-29T13:44:22;8.23;;;3.78;;
74851;SDS011;63400;50.650;6.832;2023-07-29T13:46:48;8.55;;;3.60;;
74851;SDS011;63400;50.650;6.832;2023-07-29T13:49:13;9.43;;;3.83;;
74851;SDS011;63400;50.650;6.832;2023-07-29T13:51:38;7.47;;;3.22;;
74851;SDS011;63400;50.650;6.832;2023-07-29T13:54:04;9.73;;;3.58;;
74851;SDS011;63400;50.650;6.832;2023-07-29T13:56:29;6.72;;;2.80;;
74851;SDS011;63400;50.650;6.832;2023-07-29T13:58:55;9.88;;;3.25;;
74851;SDS011;63400;50.650;6.832;2023-07-29T14:01:20;10.10;;;4.15;;
74851;SDS011;63400;50.650;6.832;2023-07-29T14:03:45;9.27;;;4.00;;
74851;SDS011;63400;50.650;6.832;2023-07-29T14:06:11;10.60;;;4.50;;
74851;SDS011;63400;50.650;6.832;2023-07-29T14:08:36;8.95;;;4.15;;
74851;SDS011;63400;50.650;6.832;2023-07-29T14:11:02;7.75;;;3.28;;
74851;SDS011;63400;50.650;6.832;2023-07-29T14:13:27;8.93;;;3.83;;
74851;SDS011;63400;50.650;6.832;2023-07-29T14:15:53;9.75;;;4.05;;
74851;SDS011;63400;50.650;6.832;2023-07-29T14:18:18;9.77;;;4.00;;
74851;SDS011;63400;50.650;6.832;2023-07-29T14:20:44;10.90;;;4.03;;
74851;SDS011;63400;50.650;6.832;2023-07-29T14:23:09;8.63;;;3.70;;
74851;SDS011;63400;50.650;6.832;2023-07-29T14:25:35;10.25;;;4.00;;
74851;SDS011;63400;50.650;6.832;2023-07-29T14:28:00;9.88;;;3.90;;
74851;SDS011;63400;50.650;6.832;2023-07-29T14:30:26;8.60;;;3.47;;
74851;SDS011;63400;50.650;6.832;2023-07-29T14:32:51;9.50;;;4.18;;
74851;SDS011;63400;50.650;6.832;2023-07-29T14:35:16;8.38;;;3.95;;
74851;SDS011;63400;50.650;6.832;2023-07-29T14:37:42;8.82;;;3.55;;
74851;SDS011;63400;50.650;6.832;2023-07-29T14:40:07;8.13;;;3.30;;
74851;SDS011;63400;50.650;6.832;2023-07-29T14:42:33;6.55;;;2.55;;
74851;SDS011;63400;50.650;6.832;2023-07-29T14:44:58;10.00;;;3.38;;
74851;SDS011;63400;50.650;6.832;2023-07-29T14:47:24;8.20;;;3.17;;
74851;SDS011;63400;50.650;6.832;2023-07-29T14:49:50;8.77;;;3.08;;
74851;SDS011;63400;50.650;6.832;2023-07-29T14:52:15;8.85;;;3.28;;
74851;SDS011;63400;50.650;6.832;2023-07-29T14:54:40;9.90;;;3.42;;
74851;SDS011;63400;50.650;6.832;2023-07-29T14:57:06;7.65;;;3.05;;
74851;SDS011;63400;50.650;6.832;2023-07-29T14:59:32;10.98;;;3.80;;